sensor_id;sensor_type;location;lat;lon;timestamp;P1;durP1;ratioP1;P2;durP2;ratioP2
74967;SDS011;63523;51.880;12.630;2023-07-29T00:00:38;5.13;;;2.63;;
74967;SDS011;63523;51.880;12.630;2023-07-29T00:03:04;5.30;;;2.67;;
74967;SDS011;63523;51.880;12.630;2023-07-29T00:05:29;6.07;;;3.07;;
74967;SDS011;63523;51.880;12.630;2023-07-29T00:07:55;5.13;;;3.03;;
74967;SDS011;63523;51.880;12.630;2023-07-29T00:10:20;5.30;;;3.10;;
74967;SDS011;63523;51.880;12.630;2023-07-29T00:12:45;5.10;;;2.70;;
74967;SDS011;63523;51.880;12.630;2023-07-29T00:15:11;6.45;;;2.90;;
74967;SDS011;63523;51.880;12.630;2023-07-29T00:17:36;5.90;;;3.00;;
74967;SDS011;63523;51.880;12.630;2023-07-29T00:20:01;6.53;;;3.20;;
74967;SDS011;63523;51.880;12.630;2023-07-29T00:22:27;5.97;;;3.13;;
74967;SDS011;63523;51.880;12.630;2023-07-29T00:24:53;6.00;;;3.40;;
74967;SDS011;63523;51.880;12.630;2023-07-29T00:27:20;5.32;;;3.10;;
74967;SDS011;63523;51.880;12.630;2023-07-29T00:29:45;5.23;;;3.03;;
74967;SDS011;63523;51.880;12.630;2023-07-29T00:32:10;5.37;;;3.20;;
74967;SDS011;63523;51.880;12.630;2023-07-29T00:34:36;7.33;;;3.40;;
74967;SDS011;63523;51.880;12.630;2023-07-29T00:37:01;5.43;;;2.87;;
74967;SDS011;63523;51.880;12.630;2023-07-29T00:39:26;7.03;;;3.17;;
74967;SDS011;63523;51.880;12.630;2023-07-29T00:41:52;5.88;;;3.22;;
74967;SDS011;63523;51.880;12.630;2023-07-29T00:44:17;6.17;;;3.20;;
74967;SDS011;63523;51.880;12.630;2023-07-29T00:46:42;5.37;;;2.80;;
74967;SDS011;63523;51.880;12.630;2023-07-29T00:49:10;6.32;;;3.47;;
74967;SDS011;63523;51.880;12.630;2023-07-29T00:51:35;6.20;;;3.30;;
74967;SDS011;63523;51.880;12.630;2023-07-29T00:54:01;5.80;;;3.00;;
74967;SDS011;63523;51.880;12.630;2023-07-29T00:56:27;6.28;;;2.80;;
74967;SDS011;63523;51.880;12.630;2023-07-29T00:58:52;6.23;;;2.90;;
74967;SDS011;63523;51.880;12.630;2023-07-29T01:01:23;6.65;;;3.20;;
74967;SDS011;63523;51.880;12.630;2023-07-29T01:03:49;6.70;;;3.30;;
74967;SDS011;63523;51.880;12.630;2023-07-29T01:09:14;6.67;;;3.43;;
74967;SDS011;63523;51.880;12.630;2023-07-29T01:11:49;7.38;;;3.20;;
74967;SDS011;63523;51.880;12.630;2023-07-29T01:14:34;6.97;;;3.40;;
74967;SDS011;63523;51.880;12.630;2023-07-29T01:17:06;5.80;;;3.20;;
74967;SDS011;63523;51.880;12.630;2023-07-29T01:22:33;6.27;;;3.10;;
74967;SDS011;63523;51.880;12.630;2023-07-29T01:24:59;8.13;;;3.45;;
74967;SDS011;63523;51.880;12.630;2023-07-29T01:27:25;6.85;;;3.75;;
74967;SDS011;63523;51.880;12.630;2023-07-29T01:29:51;7.03;;;3.83;;
74967;SDS011;63523;51.880;12.630;2023-07-29T01:32:19;6.80;;;3.85;;
74967;SDS011;63523;51.880;12.630;2023-07-29T01:34:54;7.03;;;3.63;;
74967;SDS011;63523;51.880;12.630;2023-07-29T01:37:26;6.85;;;3.78;;
74967;SDS011;63523;51.880;12.630;2023-07-29T01:39:56;7.00;;;3.85;;
74967;SDS011;63523;51.880;12.630;2023-07-29T01:42:22;6.47;;;3.67;;
74967;SDS011;63523;51.880;12.630;2023-07-29T01:44:48;7.28;;;3.78;;
74967;SDS011;63523;51.880;12.630;2023-07-29T01:47:14;6.73;;;4.07;;
74967;SDS011;63523;51.880;12.630;2023-07-29T01:49:39;6.93;;;4.07;;
74967;SDS011;63523;51.880;12.630;2023-07-29T01:52:04;7.40;;;3.77;;
74967;SDS011;63523;51.880;12.630;2023-07-29T01:54:31;6.78;;;3.72;;
74967;SDS011;63523;51.880;12.630;2023-07-29T01:56:56;6.60;;;3.93;;
74967;SDS011;63523;51.880;12.630;2023-07-29T01:59:21;5.90;;;3.60;;
74967;SDS011;63523;51.880;12.630;2023-07-29T02:01:46;7.90;;;4.27;;
74967;SDS011;63523;51.880;12.630;2023-07-29T02:04:12;7.87;;;4.20;;
74967;SDS011;63523;51.880;12.630;2023-07-29T02:06:37;6.78;;;3.83;;
74967;SDS011;63523;51.880;12.630;2023-07-29T02:09:03;8.03;;;4.10;;
74967;SDS011;63523;51.880;12.630;2023-07-29T02:11:29;7.13;;;4.10;;
74967;SDS011;63523;51.880;12.630;2023-07-29T02:13:55;7.97;;;3.90;;
74967;SDS011;63523;51.880;12.630;2023-07-29T02:16:20;6.23;;;3.67;;
74967;SDS011;63523;51.880;12.630;2023-07-29T02:18:47;6.75;;;3.95;;
74967;SDS011;63523;51.880;12.630;2023-07-29T02:21:14;8.05;;;3.78;;
74967;SDS011;63523;51.880;12.630;2023-07-29T02:23:39;6.13;;;3.30;;
74967;SDS011;63523;51.880;12.630;2023-07-29T02:26:04;8.87;;;3.90;;
74967;SDS011;63523;51.880;12.630;2023-07-29T02:28:30;6.43;;;3.50;;
74967;SDS011;63523;51.880;12.630;2023-07-29T02:33:41;7.40;;;3.60;;
74967;SDS011;63523;51.880;12.630;2023-07-29T02:36:07;8.70;;;3.45;;
74967;SDS011;63523;51.880;12.630;2023-07-29T02:38:33;8.40;;;3.80;;
74967;SDS011;63523;51.880;12.630;2023-07-29T02:40:58;5.70;;;3.20;;
74967;SDS011;63523;51.880;12.630;2023-07-29T02:43:23;7.13;;;3.40;;
74967;SDS011;63523;51.880;12.630;2023-07-29T02:45:48;6.00;;;3.23;;
74967;SDS011;63523;51.880;12.630;2023-07-29T02:48:14;5.57;;;3.10;;
74967;SDS011;63523;51.880;12.630;2023-07-29T02:50:39;6.27;;;3.50;;
74967;SDS011;63523;51.880;12.630;2023-07-29T02:53:04;5.70;;;3.00;;
74967;SDS011;63523;51.880;12.630;2023-07-29T02:55:30;6.60;;;3.50;;
74967;SDS011;63523;51.880;12.630;2023-07-29T02:57:55;8.40;;;3.23;;
74967;SDS011;63523;51.880;12.630;2023-07-29T03:00:20;6.20;;;3.40;;
74967;SDS011;63523;51.880;12.630;2023-07-29T03:02:46;5.90;;;3.20;;
74967;SDS011;63523;51.880;12.630;2023-07-29T03:05:11;7.17;;;3.20;;
74967;SDS011;63523;51.880;12.630;2023-07-29T03:07:36;5.77;;;3.00;;
74967;SDS011;63523;51.880;12.630;2023-07-29T03:10:02;6.17;;;3.00;;
74967;SDS011;63523;51.880;12.630;2023-07-29T03:12:27;6.85;;;2.90;;
74967;SDS011;63523;51.880;12.630;2023-07-29T03:14:52;5.00;;;2.80;;
74967;SDS011;63523;51.880;12.630;2023-07-29T03:17:18;6.17;;;2.80;;
74967;SDS011;63523;51.880;12.630;2023-07-29T03:19:43;7.10;;;3.17;;
74967;SDS011;63523;51.880;12.630;2023-07-29T03:22:08;5.80;;;3.20;;
74967;SDS011;63523;51.880;12.630;2023-07-29T03:24:34;6.30;;;3.10;;
74967;SDS011;63523;51.880;12.630;2023-07-29T03:26:59;5.97;;;3.03;;
74967;SDS011;63523;51.880;12.630;2023-07-29T03:29:24;6.03;;;2.63;;
74967;SDS011;63523;51.880;12.630;2023-07-29T03:31:49;6.97;;;2.57;;
74967;SDS011;63523;51.880;12.630;2023-07-29T03:34:15;8.07;;;2.80;;
74967;SDS011;63523;51.880;12.630;2023-07-29T03:36:40;5.60;;;2.67;;
74967;SDS011;63523;51.880;12.630;2023-07-29T03:39:06;6.20;;;2.93;;
74967;SDS011;63523;51.880;12.630;2023-07-29T03:41:32;7.38;;;2.92;;
74967;SDS011;63523;51.880;12.630;2023-07-29T03:43:58;6.23;;;2.87;;
74967;SDS011;63523;51.880;12.630;2023-07-29T03:46:23;6.60;;;3.27;;
74967;SDS011;63523;51.880;12.630;2023-07-29T03:48:49;5.30;;;2.40;;
74967;SDS011;63523;51.880;12.630;2023-07-29T03:51:14;4.33;;;2.00;;
74967;SDS011;63523;51.880;12.630;2023-07-29T03:53:40;4.10;;;1.90;;
74967;SDS011;63523;51.880;12.630;2023-07-29T03:56:05;3.80;;;1.50;;
74967;SDS011;63523;51.880;12.630;2023-07-29T03:58:31;3.90;;;1.70;;
74967;SDS011;63523;51.880;12.630;2023-07-29T04:00:56;5.13;;;1.90;;
74967;SDS011;63523;51.880;12.630;2023-07-29T04:03:21;4.00;;;1.77;;
74967;SDS011;63523;51.880;12.630;2023-07-29T04:05:47;3.80;;;1.53;;
74967;SDS011;63523;51.880;12.630;2023-07-29T04:08:12;4.13;;;1.67;;
74967;SDS011;63523;51.880;12.630;2023-07-29T04:10:37;4.00;;;1.80;;
74967;SDS011;63523;51.880;12.630;2023-07-29T04:13:03;3.57;;;1.30;;
74967;SDS011;63523;51.880;12.630;2023-07-29T04:15:28;3.70;;;1.30;;
74967;SDS011;63523;51.880;12.630;2023-07-29T04:17:54;3.72;;;1.20;;
74967;SDS011;63523;51.880;12.630;2023-07-29T04:20:20;4.13;;;1.10;;
74967;SDS011;63523;51.880;12.630;2023-07-29T04:22:45;2.90;;;1.10;;
74967;SDS011;63523;51.880;12.630;2023-07-29T04:27:37;3.13;;;1.10;;
74967;SDS011;63523;51.880;12.630;2023-07-29T04:30:03;4.50;;;1.17;;
74967;SDS011;63523;51.880;12.630;2023-07-29T04:32:28;2.90;;;1.02;;
74967;SDS011;63523;51.880;12.630;2023-07-29T04:34:54;3.17;;;0.80;;
74967;SDS011;63523;51.880;12.630;2023-07-29T04:37:19;2.80;;;0.90;;
74967;SDS011;63523;51.880;12.630;2023-07-29T04:39:44;3.00;;;0.90;;
74967;SDS011;63523;51.880;12.630;2023-07-29T04:42:10;2.83;;;0.80;;
74967;SDS011;63523;51.880;12.630;2023-07-29T04:44:35;2.70;;;0.90;;
74967;SDS011;63523;51.880;12.630;2023-07-29T04:47:01;3.20;;;0.80;;
74967;SDS011;63523;51.880;12.630;2023-07-29T04:49:27;2.90;;;0.90;;
74967;SDS011;63523;51.880;12.630;2023-07-29T04:51:52;2.63;;;0.97;;
74967;SDS011;63523;51.880;12.630;2023-07-29T04:54:17;2.47;;;0.57;;
74967;SDS011;63523;51.880;12.630;2023-07-29T04:56:45;2.75;;;0.80;;
74967;SDS011;63523;51.880;12.630;2023-07-29T04:59:11;4.07;;;1.03;;
74967;SDS011;63523;51.880;12.630;2023-07-29T05:01:37;3.22;;;0.98;;
74967;SDS011;63523;51.880;12.630;2023-07-29T05:04:03;2.67;;;0.88;;
74967;SDS011;63523;51.880;12.630;2023-07-29T05:06:29;2.90;;;1.10;;
74967;SDS011;63523;51.880;12.630;2023-07-29T05:08:54;2.30;;;0.70;;
74967;SDS011;63523;51.880;12.630;2023-07-29T05:11:19;2.80;;;1.00;;
74967;SDS011;63523;51.880;12.630;2023-07-29T05:13:45;2.30;;;0.70;;
74967;SDS011;63523;51.880;12.630;2023-07-29T05:16:10;2.80;;;0.90;;
74967;SDS011;63523;51.880;12.630;2023-07-29T05:18:35;3.07;;;0.80;;
74967;SDS011;63523;51.880;12.630;2023-07-29T05:21:00;3.37;;;1.27;;
74967;SDS011;63523;51.880;12.630;2023-07-29T05:23:26;3.00;;;0.93;;
74967;SDS011;63523;51.880;12.630;2023-07-29T05:25:51;2.97;;;0.83;;
74967;SDS011;63523;51.880;12.630;2023-07-29T05:28:16;3.07;;;0.90;;
74967;SDS011;63523;51.880;12.630;2023-07-29T05:30:44;2.80;;;0.90;;
74967;SDS011;63523;51.880;12.630;2023-07-29T05:33:09;2.88;;;0.80;;
74967;SDS011;63523;51.880;12.630;2023-07-29T05:35:34;2.80;;;0.80;;
74967;SDS011;63523;51.880;12.630;2023-07-29T05:38:00;2.20;;;0.60;;
74967;SDS011;63523;51.880;12.630;2023-07-29T05:40:25;2.53;;;0.70;;
74967;SDS011;63523;51.880;12.630;2023-07-29T05:42:50;2.67;;;0.70;;
74967;SDS011;63523;51.880;12.630;2023-07-29T05:45:16;3.27;;;0.90;;
74967;SDS011;63523;51.880;12.630;2023-07-29T05:47:41;2.33;;;0.80;;
74967;SDS011;63523;51.880;12.630;2023-07-29T05:50:06;3.30;;;1.10;;
74967;SDS011;63523;51.880;12.630;2023-07-29T05:52:32;2.97;;;0.90;;
74967;SDS011;63523;51.880;12.630;2023-07-29T05:54:58;2.80;;;0.90;;
74967;SDS011;63523;51.880;12.630;2023-07-29T05:57:24;2.85;;;0.63;;
74967;SDS011;63523;51.880;12.630;2023-07-29T05:59:49;3.33;;;0.70;;
74967;SDS011;63523;51.880;12.630;2023-07-29T06:02:14;2.30;;;0.80;;
74967;SDS011;63523;51.880;12.630;2023-07-29T06:04:40;2.43;;;0.80;;
74967;SDS011;63523;51.880;12.630;2023-07-29T06:07:05;4.18;;;0.95;;
74967;SDS011;63523;51.880;12.630;2023-07-29T06:09:31;3.97;;;0.90;;
74967;SDS011;63523;51.880;12.630;2023-07-29T06:11:56;2.27;;;0.80;;
74967;SDS011;63523;51.880;12.630;2023-07-29T06:14:22;3.73;;;0.90;;
74967;SDS011;63523;51.880;12.630;2023-07-29T06:16:47;3.40;;;1.07;;
74967;SDS011;63523;51.880;12.630;2023-07-29T06:19:13;3.27;;;1.10;;
74967;SDS011;63523;51.880;12.630;2023-07-29T06:21:38;2.60;;;0.73;;
74967;SDS011;63523;51.880;12.630;2023-07-29T06:24:03;3.53;;;0.90;;
74967;SDS011;63523;51.880;12.630;2023-07-29T06:26:29;2.50;;;0.90;;
74967;SDS011;63523;51.880;12.630;2023-07-29T06:28:54;3.60;;;1.00;;
74967;SDS011;63523;51.880;12.630;2023-07-29T06:31:20;2.60;;;0.70;;
74967;SDS011;63523;51.880;12.630;2023-07-29T06:33:45;2.27;;;0.70;;
74967;SDS011;63523;51.880;12.630;2023-07-29T06:36:11;2.40;;;0.90;;
74967;SDS011;63523;51.880;12.630;2023-07-29T06:38:36;2.33;;;0.80;;
74967;SDS011;63523;51.880;12.630;2023-07-29T06:41:03;4.28;;;0.60;;
74967;SDS011;63523;51.880;12.630;2023-07-29T06:43:29;2.58;;;0.77;;
74967;SDS011;63523;51.880;12.630;2023-07-29T06:45:54;3.47;;;0.70;;
74967;SDS011;63523;51.880;12.630;2023-07-29T06:48:20;2.55;;;0.63;;
74967;SDS011;63523;51.880;12.630;2023-07-29T06:50:46;2.67;;;0.80;;
74967;SDS011;63523;51.880;12.630;2023-07-29T06:53:11;2.30;;;0.70;;
74967;SDS011;63523;51.880;12.630;2023-07-29T06:55:36;2.53;;;0.90;;
74967;SDS011;63523;51.880;12.630;2023-07-29T06:58:05;2.28;;;0.70;;
74967;SDS011;63523;51.880;12.630;2023-07-29T07:00:38;2.83;;;0.80;;
74967;SDS011;63523;51.880;12.630;2023-07-29T07:03:06;2.38;;;0.70;;
74967;SDS011;63523;51.880;12.630;2023-07-29T07:05:38;2.30;;;0.80;;
74967;SDS011;63523;51.880;12.630;2023-07-29T07:08:14;2.10;;;0.60;;
74967;SDS011;63523;51.880;12.630;2023-07-29T07:10:39;2.30;;;0.77;;
74967;SDS011;63523;51.880;12.630;2023-07-29T07:13:13;3.33;;;0.73;;
74967;SDS011;63523;51.880;12.630;2023-07-29T07:15:44;2.50;;;0.90;;
74967;SDS011;63523;51.880;12.630;2023-07-29T07:18:10;3.05;;;0.80;;
74967;SDS011;63523;51.880;12.630;2023-07-29T07:20:35;3.67;;;1.00;;
74967;SDS011;63523;51.880;12.630;2023-07-29T07:23:08;3.20;;;0.82;;
74967;SDS011;63523;51.880;12.630;2023-07-29T07:25:37;2.60;;;0.90;;
74967;SDS011;63523;51.880;12.630;2023-07-29T07:28:02;2.30;;;0.80;;
74967;SDS011;63523;51.880;12.630;2023-07-29T07:30:28;2.90;;;0.93;;
74967;SDS011;63523;51.880;12.630;2023-07-29T07:32:53;2.43;;;0.70;;
74967;SDS011;63523;51.880;12.630;2023-07-29T07:35:18;2.90;;;0.80;;
74967;SDS011;63523;51.880;12.630;2023-07-29T07:37:44;2.33;;;0.77;;
74967;SDS011;63523;51.880;12.630;2023-07-29T07:40:09;2.13;;;0.70;;
74967;SDS011;63523;51.880;12.630;2023-07-29T07:42:35;2.63;;;0.83;;
74967;SDS011;63523;51.880;12.630;2023-07-29T07:45:03;2.67;;;0.70;;
74967;SDS011;63523;51.880;12.630;2023-07-29T07:47:29;2.80;;;1.00;;
74967;SDS011;63523;51.880;12.630;2023-07-29T07:49:54;2.40;;;0.70;;
74967;SDS011;63523;51.880;12.630;2023-07-29T07:52:19;2.10;;;0.73;;
74967;SDS011;63523;51.880;12.630;2023-07-29T07:54:45;3.13;;;0.90;;
74967;SDS011;63523;51.880;12.630;2023-07-29T07:57:12;2.70;;;0.80;;
74967;SDS011;63523;51.880;12.630;2023-07-29T07:59:38;2.35;;;0.80;;
74967;SDS011;63523;51.880;12.630;2023-07-29T08:02:03;4.27;;;0.87;;
74967;SDS011;63523;51.880;12.630;2023-07-29T08:04:29;2.20;;;0.80;;
74967;SDS011;63523;51.880;12.630;2023-07-29T08:06:54;2.23;;;0.70;;
74967;SDS011;63523;51.880;12.630;2023-07-29T08:09:19;2.55;;;0.75;;
74967;SDS011;63523;51.880;12.630;2023-07-29T08:11:51;2.40;;;0.80;;
74967;SDS011;63523;51.880;12.630;2023-07-29T08:14:21;3.88;;;1.00;;
74967;SDS011;63523;51.880;12.630;2023-07-29T08:16:47;2.63;;;0.70;;
74967;SDS011;63523;51.880;12.630;2023-07-29T08:19:12;2.37;;;0.70;;
74967;SDS011;63523;51.880;12.630;2023-07-29T08:21:38;2.10;;;0.70;;
74967;SDS011;63523;51.880;12.630;2023-07-29T08:24:03;2.50;;;0.83;;
74967;SDS011;63523;51.880;12.630;2023-07-29T08:26:28;2.40;;;0.90;;
74967;SDS011;63523;51.880;12.630;2023-07-29T08:28:54;2.67;;;0.80;;
74967;SDS011;63523;51.880;12.630;2023-07-29T08:31:20;3.40;;;0.90;;
74967;SDS011;63523;51.880;12.630;2023-07-29T08:37:17;2.30;;;0.80;;
74967;SDS011;63523;51.880;12.630;2023-07-29T08:39:43;2.45;;;0.90;;
74967;SDS011;63523;51.880;12.630;2023-07-29T08:42:08;2.27;;;0.77;;
74967;SDS011;63523;51.880;12.630;2023-07-29T08:44:40;2.20;;;0.70;;
74967;SDS011;63523;51.880;12.630;2023-07-29T08:47:07;2.83;;;0.82;;
74967;SDS011;63523;51.880;12.630;2023-07-29T08:49:32;2.63;;;0.88;;
74967;SDS011;63523;51.880;12.630;2023-07-29T08:51:58;2.70;;;1.00;;
74967;SDS011;63523;51.880;12.630;2023-07-29T08:54:24;2.50;;;0.77;;
74967;SDS011;63523;51.880;12.630;2023-07-29T08:56:50;2.50;;;1.00;;
74967;SDS011;63523;51.880;12.630;2023-07-29T08:59:16;2.30;;;0.75;;
74967;SDS011;63523;51.880;12.630;2023-07-29T09:01:42;2.20;;;0.70;;
74967;SDS011;63523;51.880;12.630;2023-07-29T09:04:08;2.20;;;0.90;;
74967;SDS011;63523;51.880;12.630;2023-07-29T09:06:34;2.30;;;0.80;;
74967;SDS011;63523;51.880;12.630;2023-07-29T09:09:00;2.70;;;1.00;;
74967;SDS011;63523;51.880;12.630;2023-07-29T09:11:26;2.13;;;0.80;;
74967;SDS011;63523;51.880;12.630;2023-07-29T09:13:52;2.80;;;1.10;;
74967;SDS011;63523;51.880;12.630;2023-07-29T09:16:18;2.75;;;0.90;;
74967;SDS011;63523;51.880;12.630;2023-07-29T09:18:45;3.40;;;0.90;;
74967;SDS011;63523;51.880;12.630;2023-07-29T09:21:12;2.37;;;0.90;;
74967;SDS011;63523;51.880;12.630;2023-07-29T09:23:41;2.50;;;0.80;;
74967;SDS011;63523;51.880;12.630;2023-07-29T09:26:07;1.95;;;0.75;;
74967;SDS011;63523;51.880;12.630;2023-07-29T09:28:36;3.00;;;0.90;;
74967;SDS011;63523;51.880;12.630;2023-07-29T09:31:03;2.28;;;0.80;;
74967;SDS011;63523;51.880;12.630;2023-07-29T09:33:29;2.33;;;0.80;;
74967;SDS011;63523;51.880;12.630;2023-07-29T09:35:59;2.88;;;0.82;;
74967;SDS011;63523;51.880;12.630;2023-07-29T09:38:28;2.30;;;0.80;;
74967;SDS011;63523;51.880;12.630;2023-07-29T09:40:54;2.50;;;1.00;;
74967;SDS011;63523;51.880;12.630;2023-07-29T09:43:26;2.90;;;0.68;;
74967;SDS011;63523;51.880;12.630;2023-07-29T09:45:54;3.75;;;0.82;;
74967;SDS011;63523;51.880;12.630;2023-07-29T09:48:23;2.47;;;0.80;;
74967;SDS011;63523;51.880;12.630;2023-07-29T09:50:48;2.55;;;1.02;;
74967;SDS011;63523;51.880;12.630;2023-07-29T09:53:13;2.80;;;1.10;;
74967;SDS011;63523;51.880;12.630;2023-07-29T09:55:39;2.80;;;0.90;;
74967;SDS011;63523;51.880;12.630;2023-07-29T09:58:04;2.10;;;0.83;;
74967;SDS011;63523;51.880;12.630;2023-07-29T10:00:33;3.80;;;1.00;;
74967;SDS011;63523;51.880;12.630;2023-07-29T10:02:59;3.15;;;0.90;;
74967;SDS011;63523;51.880;12.630;2023-07-29T10:05:25;3.40;;;1.10;;
74967;SDS011;63523;51.880;12.630;2023-07-29T10:07:52;3.05;;;1.20;;
74967;SDS011;63523;51.880;12.630;2023-07-29T10:10:19;2.77;;;1.20;;
74967;SDS011;63523;51.880;12.630;2023-07-29T10:12:45;2.58;;;1.00;;
74967;SDS011;63523;51.880;12.630;2023-07-29T10:15:11;3.22;;;1.05;;
74967;SDS011;63523;51.880;12.630;2023-07-29T10:17:37;3.90;;;1.27;;
74967;SDS011;63523;51.880;12.630;2023-07-29T10:20:03;2.63;;;1.08;;
74967;SDS011;63523;51.880;12.630;2023-07-29T10:22:34;2.65;;;0.95;;
74967;SDS011;63523;51.880;12.630;2023-07-29T10:25:07;2.95;;;1.00;;
74967;SDS011;63523;51.880;12.630;2023-07-29T10:27:37;4.53;;;1.20;;
74967;SDS011;63523;51.880;12.630;2023-07-29T10:30:11;4.65;;;1.17;;
74967;SDS011;63523;51.880;12.630;2023-07-29T10:32:37;2.50;;;1.00;;
74967;SDS011;63523;51.880;12.630;2023-07-29T10:35:03;2.58;;;0.95;;
74967;SDS011;63523;51.880;12.630;2023-07-29T10:37:29;2.80;;;1.00;;
74967;SDS011;63523;51.880;12.630;2023-07-29T10:39:55;3.33;;;1.05;;
74967;SDS011;63523;51.880;12.630;2023-07-29T10:42:21;2.90;;;1.20;;
74967;SDS011;63523;51.880;12.630;2023-07-29T10:44:51;2.53;;;0.90;;
74967;SDS011;63523;51.880;12.630;2023-07-29T10:49:54;4.30;;;1.40;;
74967;SDS011;63523;51.880;12.630;2023-07-29T10:52:55;5.85;;;1.63;;
74967;SDS011;63523;51.880;12.630;2023-07-29T10:55:24;7.03;;;1.27;;
74967;SDS011;63523;51.880;12.630;2023-07-29T10:57:51;6.40;;;1.08;;
74967;SDS011;63523;51.880;12.630;2023-07-29T11:00:18;2.83;;;0.60;;
74967;SDS011;63523;51.880;12.630;2023-07-29T11:02:59;5.07;;;0.50;;
74967;SDS011;63523;51.880;12.630;2023-07-29T11:05:26;4.03;;;0.50;;
74967;SDS011;63523;51.880;12.630;2023-07-29T11:08:15;8.23;;;1.23;;
74967;SDS011;63523;51.880;12.630;2023-07-29T11:10:42;10.57;;;2.07;;
74967;SDS011;63523;51.880;12.630;2023-07-29T11:13:09;8.55;;;2.08;;
74967;SDS011;63523;51.880;12.630;2023-07-29T11:15:36;8.02;;;2.03;;
74967;SDS011;63523;51.880;12.630;2023-07-29T11:18:03;8.25;;;1.05;;
74967;SDS011;63523;51.880;12.630;2023-07-29T11:20:32;5.07;;;0.60;;
74967;SDS011;63523;51.880;12.630;2023-07-29T11:23:02;2.87;;;0.50;;
74967;SDS011;63523;51.880;12.630;2023-07-29T11:25:29;4.10;;;0.70;;
74967;SDS011;63523;51.880;12.630;2023-07-29T11:27:56;6.22;;;0.80;;
74967;SDS011;63523;51.880;12.630;2023-07-29T11:30:23;2.25;;;0.50;;
74967;SDS011;63523;51.880;12.630;2023-07-29T11:32:51;3.47;;;0.40;;
74967;SDS011;63523;51.880;12.630;2023-07-29T11:35:18;4.83;;;0.57;;
74967;SDS011;63523;51.880;12.630;2023-07-29T11:37:44;4.32;;;0.50;;
74967;SDS011;63523;51.880;12.630;2023-07-29T11:40:20;3.35;;;0.47;;
74967;SDS011;63523;51.880;12.630;2023-07-29T11:42:46;2.93;;;0.40;;
74967;SDS011;63523;51.880;12.630;2023-07-29T11:45:13;3.65;;;0.70;;
74967;SDS011;63523;51.880;12.630;2023-07-29T11:47:39;4.35;;;0.57;;
74967;SDS011;63523;51.880;12.630;2023-07-29T11:50:06;4.90;;;0.82;;
74967;SDS011;63523;51.880;12.630;2023-07-29T11:52:39;3.10;;;0.50;;
74967;SDS011;63523;51.880;12.630;2023-07-29T11:55:06;2.65;;;0.30;;
74967;SDS011;63523;51.880;12.630;2023-07-29T11:57:33;2.20;;;0.20;;
74967;SDS011;63523;51.880;12.630;2023-07-29T12:00:04;2.22;;;0.35;;
74967;SDS011;63523;51.880;12.630;2023-07-29T12:02:31;2.43;;;0.30;;
74967;SDS011;63523;51.880;12.630;2023-07-29T12:04:57;2.10;;;0.30;;
74967;SDS011;63523;51.880;12.630;2023-07-29T12:07:23;2.75;;;0.20;;
74967;SDS011;63523;51.880;12.630;2023-07-29T12:09:49;2.00;;;0.20;;
74967;SDS011;63523;51.880;12.630;2023-07-29T12:12:15;1.90;;;0.22;;
74967;SDS011;63523;51.880;12.630;2023-07-29T12:14:43;2.00;;;0.30;;
74967;SDS011;63523;51.880;12.630;2023-07-29T12:17:10;1.85;;;0.20;;
74967;SDS011;63523;51.880;12.630;2023-07-29T12:19:36;3.00;;;0.30;;
74967;SDS011;63523;51.880;12.630;2023-07-29T12:22:04;2.63;;;0.30;;
74967;SDS011;63523;51.880;12.630;2023-07-29T12:24:31;2.20;;;0.22;;
74967;SDS011;63523;51.880;12.630;2023-07-29T12:26:57;1.63;;;0.20;;
74967;SDS011;63523;51.880;12.630;2023-07-29T12:29:23;1.50;;;0.20;;
74967;SDS011;63523;51.880;12.630;2023-07-29T12:31:49;1.83;;;0.27;;
74967;SDS011;63523;51.880;12.630;2023-07-29T12:34:21;2.28;;;0.22;;
74967;SDS011;63523;51.880;12.630;2023-07-29T12:36:48;2.10;;;0.40;;
74967;SDS011;63523;51.880;12.630;2023-07-29T12:39:31;3.22;;;0.40;;
74967;SDS011;63523;51.880;12.630;2023-07-29T12:41:59;3.38;;;0.88;;
74967;SDS011;63523;51.880;12.630;2023-07-29T12:44:29;2.90;;;0.60;;
74967;SDS011;63523;51.880;12.630;2023-07-29T12:46:55;2.80;;;0.47;;
74967;SDS011;63523;51.880;12.630;2023-07-29T12:49:21;2.40;;;0.50;;
74967;SDS011;63523;51.880;12.630;2023-07-29T12:51:47;3.20;;;0.57;;
74967;SDS011;63523;51.880;12.630;2023-07-29T12:54:12;2.83;;;0.60;;
74967;SDS011;63523;51.880;12.630;2023-07-29T12:56:38;3.33;;;0.60;;
74967;SDS011;63523;51.880;12.630;2023-07-29T12:59:04;2.90;;;0.50;;
74967;SDS011;63523;51.880;12.630;2023-07-29T13:01:30;2.30;;;0.50;;
74967;SDS011;63523;51.880;12.630;2023-07-29T13:03:55;3.57;;;0.80;;
74967;SDS011;63523;51.880;12.630;2023-07-29T13:06:21;2.67;;;0.60;;
74967;SDS011;63523;51.880;12.630;2023-07-29T13:08:47;2.37;;;0.70;;
74967;SDS011;63523;51.880;12.630;2023-07-29T13:11:13;3.58;;;0.70;;
74967;SDS011;63523;51.880;12.630;2023-07-29T13:13:39;2.08;;;0.50;;
74967;SDS011;63523;51.880;12.630;2023-07-29T13:16:04;3.00;;;0.87;;
74967;SDS011;63523;51.880;12.630;2023-07-29T13:18:31;3.70;;;0.70;;
74967;SDS011;63523;51.880;12.630;2023-07-29T13:20:56;2.70;;;0.60;;
74967;SDS011;63523;51.880;12.630;2023-07-29T13:23:22;3.73;;;0.60;;
74967;SDS011;63523;51.880;12.630;2023-07-29T13:25:47;2.57;;;0.60;;
74967;SDS011;63523;51.880;12.630;2023-07-29T13:28:13;2.75;;;0.70;;
74967;SDS011;63523;51.880;12.630;2023-07-29T13:30:38;2.80;;;0.60;;
74967;SDS011;63523;51.880;12.630;2023-07-29T13:33:04;2.90;;;0.88;;
74967;SDS011;63523;51.880;12.630;2023-07-29T13:35:30;3.23;;;1.10;;
74967;SDS011;63523;51.880;12.630;2023-07-29T13:37:55;3.58;;;1.20;;
74967;SDS011;63523;51.880;12.630;2023-07-29T13:40:21;3.13;;;0.50;;
74967;SDS011;63523;51.880;12.630;2023-07-29T13:42:46;2.73;;;0.67;;
74967;SDS011;63523;51.880;12.630;2023-07-29T13:45:12;2.40;;;0.60;;
74967;SDS011;63523;51.880;12.630;2023-07-29T13:47:37;2.63;;;0.60;;
74967;SDS011;63523;51.880;12.630;2023-07-29T13:50:02;2.63;;;0.68;;
74967;SDS011;63523;51.880;12.630;2023-07-29T13:52:28;3.40;;;0.70;;
74967;SDS011;63523;51.880;12.630;2023-07-29T13:54:54;3.57;;;0.87;;
74967;SDS011;63523;51.880;12.630;2023-07-29T13:57:19;2.17;;;0.50;;
74967;SDS011;63523;51.880;12.630;2023-07-29T13:59:44;2.30;;;0.50;;
74967;SDS011;63523;51.880;12.630;2023-07-29T14:02:10;3.40;;;0.90;;
74967;SDS011;63523;51.880;12.630;2023-07-29T14:04:35;2.80;;;0.70;;
74967;SDS011;63523;51.880;12.630;2023-07-29T14:07:00;2.97;;;0.73;;
74967;SDS011;63523;51.880;12.630;2023-07-29T14:09:26;2.00;;;0.50;;
74967;SDS011;63523;51.880;12.630;2023-07-29T14:11:52;2.70;;;0.70;;
74967;SDS011;63523;51.880;12.630;2023-07-29T14:14:18;2.50;;;0.60;;
74967;SDS011;63523;51.880;12.630;2023-07-29T14:16:43;2.67;;;0.80;;
74967;SDS011;63523;51.880;12.630;2023-07-29T14:19:09;2.17;;;0.60;;
74967;SDS011;63523;51.880;12.630;2023-07-29T14:21:34;2.50;;;0.80;;
74967;SDS011;63523;51.880;12.630;2023-07-29T14:23:59;4.53;;;0.90;;
74967;SDS011;63523;51.880;12.630;2023-07-29T14:26:25;4.93;;;0.90;;
74967;SDS011;63523;51.880;12.630;2023-07-29T14:28:50;2.72;;;0.70;;
74967;SDS011;63523;51.880;12.630;2023-07-29T14:31:16;2.83;;;0.77;;
74967;SDS011;63523;51.880;12.630;2023-07-29T14:33:42;3.17;;;0.90;;
74967;SDS011;63523;51.880;12.630;2023-07-29T14:36:08;2.53;;;0.80;;
74967;SDS011;63523;51.880;12.630;2023-07-29T14:38:33;3.00;;;1.10;;
74967;SDS011;63523;51.880;12.630;2023-07-29T14:40:59;3.50;;;0.88;;
74967;SDS011;63523;51.880;12.630;2023-07-29T14:43:25;3.13;;;1.02;;
74967;SDS011;63523;51.880;12.630;2023-07-29T14:45:50;3.80;;;0.93;;